createdAt,value
2018-07-06T00:02:05.285Z,24.62
2018-07-06T00:04:52.153Z,24.55
2018-07-06T00:07:32.922Z,24.29
2018-07-06T00:10:19.937Z,24.43
2018-07-06T00:13:00.609Z,24.55
2018-07-06T00:15:41.317Z,24.53
2018-07-06T00:18:28.052Z,24.56
2018-07-06T00:21:14.736Z,24.55
2018-07-06T00:24:01.688Z,24.56
2018-07-06T00:26:42.733Z,24.46
2018-07-06T00:29:29.430Z,24.51
2018-07-06T00:32:16.354Z,24.67
2018-07-06T00:35:02.989Z,24.75
2018-07-06T00:37:49.857Z,24.65
2018-07-06T00:40:36.465Z,24.53
2018-07-06T00:43:23.497Z,24.40
2018-07-06T00:46:10.310Z,24.40
2018-07-06T00:48:57.154Z,24.59
2018-07-06T00:51:37.824Z,24.74
2018-07-06T00:54:18.658Z,24.68
2018-07-06T00:57:05.463Z,24.59
2018-07-06T00:59:52.141Z,24.42
2018-07-06T01:02:38.851Z,24.44
2018-07-06T01:05:25.661Z,24.44
2018-07-06T01:08:12.540Z,24.42
2018-07-06T01:10:53.148Z,24.44
2018-07-06T01:13:39.797Z,24.32
2018-07-06T01:16:26.657Z,24.28
2018-07-06T01:19:13.422Z,24.23
2018-07-06T01:22:00.753Z,24.16
2018-07-06T01:24:47.933Z,24.23
2018-07-06T01:27:34.858Z,24.28
2018-07-06T01:30:21.585Z,24.34
2018-07-06T01:33:08.672Z,24.33
2018-07-06T01:35:55.788Z,24.21
2018-07-06T01:38:43.214Z,24.19
2018-07-06T01:41:30.232Z,24.12
2018-07-06T01:44:17.282Z,24.10
2018-07-06T01:47:04.133Z,23.95
2018-07-06T01:49:51.013Z,24.05
2018-07-06T01:52:31.776Z,24.04
2018-07-06T01:55:18.377Z,23.91
2018-07-06T01:58:05.282Z,23.72
2018-07-06T02:00:52.241Z,23.55
2018-07-06T02:03:38.933Z,23.73
2018-07-06T02:06:19.951Z,23.83
2018-07-06T02:09:07.494Z,23.64
2018-07-06T02:11:55.150Z,23.58
2018-07-06T02:14:41.836Z,23.71
2018-07-06T02:17:29.037Z,23.88
2018-07-06T02:20:15.980Z,23.86
2018-07-06T02:23:02.965Z,23.86
2018-07-06T02:25:49.807Z,23.85
2018-07-06T02:28:36.449Z,23.83
2018-07-06T02:31:23.395Z,23.83
2018-07-06T02:34:10.289Z,23.74
2018-07-06T02:36:57.392Z,23.76
2018-07-06T02:39:44.751Z,23.69
2018-07-06T02:42:31.737Z,23.69
2018-07-06T02:45:18.421Z,23.61
2018-07-06T02:48:05.288Z,23.64
2018-07-06T02:50:52.544Z,23.70
2018-07-06T02:53:33.987Z,23.61
2018-07-06T02:56:20.846Z,23.63
2018-07-06T02:59:01.609Z,23.69
2018-07-06T03:01:42.593Z,23.59
2018-07-06T03:04:29.280Z,23.61
2018-07-06T03:07:16.613Z,23.63
2018-07-06T03:10:03.410Z,23.55
2018-07-06T03:12:50.533Z,23.52
2018-07-06T03:15:37.208Z,23.57
2018-07-06T03:18:24.082Z,23.58
2018-07-06T03:21:10.823Z,23.63
2018-07-06T03:23:57.746Z,23.67
2018-07-06T03:26:44.518Z,23.79
2018-07-06T03:29:31.536Z,23.88
2018-07-06T03:32:18.317Z,23.62
2018-07-06T03:35:05.196Z,23.52
2018-07-06T03:37:45.860Z,23.44
2018-07-06T03:40:26.898Z,23.62
2018-07-06T03:43:13.614Z,24.00
2018-07-06T03:46:00.599Z,24.11
2018-07-06T03:48:47.252Z,24.18
2018-07-06T03:51:34.369Z,24.20
2018-07-06T03:54:21.084Z,24.13
2018-07-06T03:57:07.936Z,24.31
2018-07-06T03:59:54.796Z,24.23
2018-07-06T04:02:41.761Z,24.19
2018-07-06T04:05:28.428Z,24.22
2018-07-06T04:08:15.449Z,24.40
2018-07-06T04:11:02.312Z,24.81
2018-07-06T04:13:49.105Z,24.78
2018-07-06T04:16:36.045Z,24.82
2018-07-06T04:19:22.934Z,24.97
2018-07-06T04:22:09.584Z,24.96
2018-07-06T04:24:56.575Z,25.08
2018-07-06T04:27:43.641Z,25.22
2018-07-06T04:30:30.920Z,25.54
2018-07-06T04:33:17.520Z,25.77
2018-07-06T04:36:04.208Z,25.79
2018-07-06T04:38:51.237Z,25.38
2018-07-06T04:41:37.991Z,25.69
2018-07-06T04:44:24.769Z,25.58
2018-07-06T04:47:11.573Z,25.48
2018-07-06T04:49:58.153Z,25.89
2018-07-06T04:52:44.817Z,26.31
2018-07-06T04:55:31.669Z,26.29
2018-07-06T04:58:18.289Z,26.76
2018-07-06T05:01:05.009Z,27.17
2018-07-06T05:03:52.064Z,27.60
2018-07-06T05:06:38.886Z,27.98
2018-07-06T05:09:25.990Z,28.06
2018-07-06T05:12:12.789Z,27.93
2018-07-06T05:15:00.703Z,28.26
2018-07-06T05:17:47.310Z,28.25
2018-07-06T05:20:34.362Z,28.77
2018-07-06T05:23:21.257Z,28.68
2018-07-06T05:26:08.558Z,29.00
2018-07-06T05:28:55.298Z,29.09
2018-07-06T05:31:42.045Z,29.75
2018-07-06T05:34:29.094Z,29.79
2018-07-06T05:37:16.102Z,29.76
2018-07-06T05:40:02.941Z,29.84
2018-07-06T05:42:49.869Z,29.20
2018-07-06T05:45:30.424Z,30.12
2018-07-06T05:48:17.181Z,30.66
2018-07-06T05:51:04.090Z,30.57
2018-07-06T05:53:51.423Z,30.79
2018-07-06T05:56:38.278Z,30.96
2018-07-06T05:59:25.551Z,31.12
2018-07-06T06:02:12.529Z,31.58
2018-07-06T06:04:53.470Z,31.71
2018-07-06T06:07:27.470Z,31.19
2018-07-06T06:09:58.295Z,31.02
2018-07-06T06:12:28.945Z,31.50
2018-07-06T06:15:00.141Z,31.27
2018-07-06T06:17:31.025Z,31.90
2018-07-06T06:20:01.744Z,32.50
2018-07-06T06:22:32.426Z,32.58
2018-07-06T06:25:02.570Z,31.62
2018-07-06T06:27:33.254Z,31.34
2018-07-06T06:30:04.082Z,31.99
2018-07-06T06:32:34.968Z,32.31
2018-07-06T06:35:05.921Z,31.17
2018-07-06T06:37:36.661Z,31.98
2018-07-06T06:40:07.523Z,32.37
2018-07-06T06:42:38.269Z,32.62
2018-07-06T06:45:09.121Z,33.29
2018-07-06T06:47:39.315Z,33.20
2018-07-06T06:50:10.166Z,33.45
2018-07-06T06:52:41.005Z,32.68
2018-07-06T06:55:12.051Z,33.47
2018-07-06T06:57:42.237Z,32.83
2018-07-06T07:00:13.065Z,32.88
2018-07-06T07:02:43.914Z,33.50
2018-07-06T07:05:14.785Z,33.34
2018-07-06T07:07:45.670Z,33.96
2018-07-06T07:10:16.520Z,33.89
2018-07-06T07:12:47.322Z,34.74
2018-07-06T07:15:18.192Z,33.53
2018-07-06T07:17:49.276Z,34.32
2018-07-06T07:20:19.641Z,34.18
2018-07-06T07:22:50.377Z,34.92
2018-07-06T07:25:21.310Z,35.03
2018-07-06T07:27:52.098Z,34.64
2018-07-06T07:30:23.031Z,34.95
2018-07-06T07:32:53.750Z,35.05
2018-07-06T07:35:23.924Z,35.12
2018-07-06T07:37:54.590Z,34.63
2018-07-06T07:40:25.539Z,34.97
2018-07-06T07:42:56.489Z,34.72
2018-07-06T07:45:26.872Z,34.68
2018-07-06T07:47:57.721Z,35.14
2018-07-06T07:50:28.493Z,35.68
2018-07-06T07:53:15.482Z,36.07
2018-07-06T07:55:46.417Z,34.70
2018-07-06T07:58:17.115Z,35.87
2018-07-06T08:00:48.154Z,34.72
2018-07-06T08:03:18.172Z,35.25
2018-07-06T08:05:49.087Z,35.11
2018-07-06T08:08:19.753Z,34.60
2018-07-06T08:10:50.545Z,34.92
2018-07-06T08:13:21.345Z,35.84
2018-07-06T08:15:53.682Z,34.68
2018-07-06T08:18:24.409Z,35.01
2018-07-06T08:20:55.258Z,35.26
2018-07-06T08:23:25.945Z,33.59
2018-07-06T08:25:56.855Z,33.47
2018-07-06T08:28:27.555Z,34.50
2018-07-06T08:30:58.469Z,33.89
2018-07-06T08:33:33.328Z,34.04
2018-07-06T08:36:24.074Z,34.23
2018-07-06T08:38:54.748Z,33.93
2018-07-06T08:41:25.076Z,34.49
2018-07-06T08:43:56.045Z,34.90
2018-07-06T08:46:26.937Z,34.86
2018-07-06T08:48:57.514Z,34.53
2018-07-06T08:51:28.317Z,34.86
2018-07-06T08:53:58.996Z,34.84
2018-07-06T08:56:29.914Z,36.56
2018-07-06T08:59:00.545Z,34.88
2018-07-06T09:01:31.345Z,35.11
2018-07-06T09:04:02.376Z,35.16
2018-07-06T09:06:33.073Z,36.21
2018-07-06T09:09:03.821Z,35.62
2018-07-06T09:11:34.089Z,36.83
2018-07-06T09:14:04.858Z,37.46
2018-07-06T09:16:35.661Z,37.97
2018-07-06T09:19:06.369Z,36.40
2018-07-06T09:21:37.674Z,36.00
2018-07-06T09:24:09.143Z,37.29
2018-07-06T09:26:39.922Z,38.40
2018-07-06T09:29:10.493Z,38.82
2018-07-06T09:31:41.205Z,37.02
2018-07-06T09:34:11.956Z,36.07
2018-07-06T09:36:43.263Z,36.22
2018-07-06T09:39:14.361Z,36.73
2018-07-06T09:41:45.170Z,36.98
2018-07-06T09:44:15.645Z,36.85
2018-07-06T09:46:46.705Z,36.86
2018-07-06T09:49:17.385Z,36.61
2018-07-06T09:51:48.212Z,36.52
2018-07-06T09:54:18.826Z,37.11
2018-07-06T09:56:49.738Z,36.69
2018-07-06T09:59:20.593Z,37.87
2018-07-06T10:01:51.470Z,37.25
2018-07-06T10:04:22.182Z,37.06
2018-07-06T10:06:52.920Z,37.38
2018-07-06T10:09:23.785Z,37.27
2018-07-06T10:11:54.565Z,37.05
2018-07-06T10:14:25.300Z,38.19
2018-07-06T10:16:56.149Z,38.42
2018-07-06T10:19:26.928Z,38.30
2018-07-06T10:21:57.479Z,38.88
2018-07-06T10:24:28.157Z,38.92
2018-07-06T10:26:59.061Z,38.06
2018-07-06T10:29:47.987Z,37.38
2018-07-06T10:32:26.473Z,37.05
2018-07-06T10:34:57.468Z,38.30
2018-07-06T10:37:28.345Z,38.19
2018-07-06T10:39:59.034Z,39.08
2018-07-06T10:42:29.894Z,38.85
2018-07-06T10:45:00.550Z,37.51
2018-07-06T10:47:31.338Z,37.17
2018-07-06T10:50:01.473Z,36.84
2018-07-06T10:52:32.230Z,37.62
2018-07-06T10:55:03.013Z,37.80
2018-07-06T10:57:33.983Z,37.74
2018-07-06T11:00:04.745Z,37.58
2018-07-06T11:02:36.141Z,37.99
2018-07-06T11:05:06.444Z,37.03
2018-07-06T11:07:37.142Z,36.33
2018-07-06T11:10:07.910Z,36.36
2018-07-06T11:12:38.725Z,36.12
2018-07-06T11:15:09.429Z,36.70
2018-07-06T11:17:40.201Z,36.90
2018-07-06T11:20:10.749Z,37.00
2018-07-06T11:22:41.592Z,38.22
2018-07-06T11:25:11.909Z,37.86
2018-07-06T11:27:42.739Z,36.38
2018-07-06T11:30:13.478Z,37.15
2018-07-06T11:32:44.261Z,37.73
2018-07-06T11:35:14.842Z,38.62
2018-07-06T11:37:45.678Z,37.92
2018-07-06T11:40:16.462Z,38.20
2018-07-06T11:42:47.414Z,39.08
2018-07-06T11:45:18.185Z,39.31
2018-07-06T11:47:48.917Z,38.68
2018-07-06T11:50:19.608Z,37.71
2018-07-06T11:52:50.420Z,38.54
2018-07-06T11:55:21.125Z,38.49
2018-07-06T11:57:52.082Z,38.48
2018-07-06T12:00:22.897Z,38.07
2018-07-06T12:02:53.470Z,37.40
2018-07-06T12:05:24.202Z,37.69
2018-07-06T12:07:54.993Z,38.34
2018-07-06T12:10:25.722Z,37.88
2018-07-06T12:12:56.705Z,38.72
2018-07-06T12:15:27.299Z,38.17
2018-07-06T12:17:58.226Z,38.43
2018-07-06T12:20:28.844Z,39.05
2018-07-06T12:22:59.717Z,38.80
2018-07-06T12:25:30.429Z,37.63
2018-07-06T12:28:01.395Z,37.38
2018-07-06T12:30:31.990Z,37.17
2018-07-06T12:33:02.977Z,36.94
2018-07-06T12:35:33.769Z,37.98
2018-07-06T12:38:04.545Z,37.30
2018-07-06T12:40:35.185Z,37.86
2018-07-06T12:43:06.110Z,37.84
2018-07-06T12:45:36.962Z,37.53
2018-07-06T12:48:07.747Z,37.19
2018-07-06T12:50:38.481Z,37.94
2018-07-06T12:53:09.357Z,39.00
2018-07-06T12:55:40.050Z,39.67
2018-07-06T12:58:10.860Z,39.09
2018-07-06T13:00:41.624Z,38.38
2018-07-06T13:03:12.613Z,38.28
2018-07-06T13:05:43.294Z,38.23
2018-07-06T13:08:14.173Z,38.21
2018-07-06T13:10:44.785Z,38.40
2018-07-06T13:13:14.982Z,38.24
2018-07-06T13:15:45.556Z,38.41
2018-07-06T13:18:16.598Z,37.66
2018-07-06T13:20:47.214Z,37.53
2018-07-06T13:23:18.045Z,37.83
2018-07-06T13:25:48.579Z,37.66
2018-07-06T13:28:20.446Z,37.44
2018-07-06T13:30:51.141Z,38.07
2018-07-06T13:33:22.051Z,37.56
2018-07-06T13:35:52.280Z,37.43
2018-07-06T13:38:23.145Z,37.52
2018-07-06T13:40:53.879Z,37.22
2018-07-06T13:43:24.704Z,37.70
2018-07-06T13:45:55.669Z,37.49
2018-07-06T13:48:26.429Z,37.25
2018-07-06T13:50:57.132Z,37.45
2018-07-06T13:53:27.822Z,37.31
2018-07-06T13:55:58.710Z,37.22
2018-07-06T13:58:29.454Z,37.64
2018-07-06T14:01:00.146Z,38.59
2018-07-06T14:03:30.906Z,37.71
2018-07-06T14:06:01.680Z,37.42
2018-07-06T14:08:32.370Z,37.52
2018-07-06T14:11:02.918Z,37.26
2018-07-06T14:13:33.625Z,37.17
2018-07-06T14:16:04.302Z,37.64
2018-07-06T14:18:35.165Z,37.63
2018-07-06T14:21:05.858Z,37.90
2018-07-06T14:23:36.634Z,37.41
2018-07-06T14:26:07.352Z,37.76
2018-07-06T14:28:38.294Z,37.57
2018-07-06T14:31:08.524Z,36.73
2018-07-06T14:33:38.737Z,37.17
2018-07-06T14:36:08.877Z,36.97
2018-07-06T14:38:39.208Z,36.84
2018-07-06T14:41:10.122Z,36.90
2018-07-06T14:43:40.841Z,37.14
2018-07-06T14:46:11.990Z,36.58
2018-07-06T14:48:42.185Z,37.72
2018-07-06T14:51:12.906Z,37.62
2018-07-06T14:53:43.609Z,37.50
2018-07-06T14:56:14.673Z,37.14
2018-07-06T14:58:45.266Z,37.16
2018-07-06T15:01:16.117Z,36.80
2018-07-06T15:03:46.845Z,36.28
2018-07-06T15:06:18.195Z,36.43
2018-07-06T15:08:48.885Z,36.76
2018-07-06T15:11:19.090Z,37.10
2018-07-06T15:13:49.745Z,36.92
2018-07-06T15:16:20.584Z,37.41
2018-07-06T15:18:50.984Z,36.68
2018-07-06T15:21:21.400Z,36.59
2018-07-06T15:23:51.942Z,36.26
2018-07-06T15:26:22.273Z,36.35
2018-07-06T15:28:53.153Z,35.78
2018-07-06T15:31:23.870Z,35.97
2018-07-06T15:33:54.473Z,36.07
2018-07-06T15:36:25.214Z,35.80
2018-07-06T15:38:55.948Z,35.57
2018-07-06T15:41:26.585Z,35.86
2018-07-06T15:43:57.430Z,36.53
2018-07-06T15:46:28.246Z,36.04
2018-07-06T15:48:59.637Z,35.88
2018-07-06T15:51:30.413Z,36.00
2018-07-06T15:54:00.589Z,35.78
2018-07-06T15:56:31.499Z,35.84
2018-07-06T15:59:02.869Z,36.44
2018-07-06T16:01:34.200Z,36.64
2018-07-06T16:04:05.187Z,36.45
2018-07-06T16:06:36.925Z,36.54
2018-07-06T16:09:08.295Z,35.87
2018-07-06T16:11:39.067Z,35.52
2018-07-06T16:14:10.094Z,35.27
2018-07-06T16:16:40.813Z,35.31
2018-07-06T16:19:11.701Z,35.00
2018-07-06T16:21:42.454Z,34.90
2018-07-06T16:24:13.408Z,35.16
2018-07-06T16:26:44.297Z,34.49
2018-07-06T16:29:15.072Z,34.12
2018-07-06T16:31:45.740Z,34.09
2018-07-06T16:34:16.506Z,34.09
2018-07-06T16:36:47.289Z,34.49
2018-07-06T16:39:18.221Z,34.43
2018-07-06T16:41:48.818Z,34.64
2018-07-06T16:44:19.662Z,34.49
2018-07-06T16:46:50.509Z,34.78
2018-07-06T16:49:21.407Z,34.80
2018-07-06T16:51:52.104Z,34.78
2018-07-06T16:54:22.785Z,34.45
2018-07-06T16:56:53.452Z,34.74
2018-07-06T16:59:24.498Z,34.85
2018-07-06T17:01:55.186Z,34.80
2018-07-06T17:04:26.062Z,35.03
2018-07-06T17:06:56.803Z,35.07
2018-07-06T17:09:27.597Z,35.03
2018-07-06T17:11:58.262Z,35.02
2018-07-06T17:14:29.040Z,34.88
2018-07-06T17:16:59.773Z,34.85
2018-07-06T17:19:30.497Z,34.53
2018-07-06T17:22:01.268Z,34.12
2018-07-06T17:24:32.077Z,33.94
2018-07-06T17:27:02.818Z,33.54
2018-07-06T17:29:33.750Z,33.45
2018-07-06T17:32:04.439Z,33.39
2018-07-06T17:34:35.305Z,33.07
2018-07-06T17:37:06.198Z,32.67
2018-07-06T17:39:36.969Z,32.35
2018-07-06T17:42:07.676Z,31.99
2018-07-06T17:44:38.377Z,31.85
2018-07-06T17:47:09.038Z,31.62
2018-07-06T17:49:39.739Z,31.44
2018-07-06T17:52:10.209Z,31.53
2018-07-06T17:54:41.081Z,31.60
2018-07-06T17:57:11.216Z,31.34
2018-07-06T17:59:41.945Z,31.01
2018-07-06T18:02:12.637Z,30.93
2018-07-06T18:04:43.413Z,30.81
2018-07-06T18:07:14.297Z,31.00
2018-07-06T18:09:45.062Z,30.92
2018-07-06T18:12:15.837Z,30.93
2018-07-06T18:14:46.653Z,30.78
2018-07-06T18:17:17.375Z,30.77
2018-07-06T18:19:47.523Z,30.85
2018-07-06T18:22:18.110Z,30.68
2018-07-06T18:24:48.873Z,30.71
2018-07-06T18:27:19.483Z,30.73
2018-07-06T18:29:49.681Z,30.76
2018-07-06T18:32:20.405Z,30.70
2018-07-06T18:34:51.270Z,30.65
2018-07-06T18:37:21.491Z,30.62
2018-07-06T18:39:52.453Z,30.53
2018-07-06T18:42:23.127Z,30.57
2018-07-06T18:44:53.938Z,30.47
2018-07-06T18:47:24.601Z,30.47
2018-07-06T18:49:55.225Z,30.30
2018-07-06T18:52:25.960Z,30.32
2018-07-06T18:54:57.103Z,30.03
2018-07-06T18:57:27.737Z,29.89
2018-07-06T18:59:58.737Z,29.83
2018-07-06T19:02:29.413Z,29.88
2018-07-06T19:05:00.286Z,29.86
2018-07-06T19:07:30.965Z,29.84
2018-07-06T19:10:01.755Z,30.01
2018-07-06T19:12:32.525Z,30.04
2018-07-06T19:15:03.221Z,29.99
2018-07-06T19:17:33.399Z,30.01
2018-07-06T19:20:04.313Z,29.89
2018-07-06T19:22:34.964Z,29.74
2018-07-06T19:25:05.654Z,29.66
2018-07-06T19:27:36.000Z,29.30
2018-07-06T19:30:06.963Z,29.05
2018-07-06T19:32:37.587Z,29.08
2018-07-06T19:35:08.145Z,28.91
2018-07-06T19:37:38.773Z,28.93
2018-07-06T19:40:09.995Z,28.87
2018-07-06T19:42:40.733Z,28.80
2018-07-06T19:45:11.291Z,28.82
2018-07-06T19:47:42.072Z,28.89
2018-07-06T19:50:13.841Z,28.86
2018-07-06T19:52:44.544Z,28.82
2018-07-06T19:55:15.276Z,28.64
2018-07-06T19:57:46.024Z,28.75
2018-07-06T20:00:16.984Z,28.79
2018-07-06T20:02:47.676Z,28.76
2018-07-06T20:05:18.610Z,28.75
2018-07-06T20:07:49.250Z,28.76
2018-07-06T20:10:20.430Z,28.61
2018-07-06T20:12:50.906Z,28.54
2018-07-06T20:15:21.233Z,28.30
2018-07-06T20:17:52.025Z,28.33
2018-07-06T20:20:22.930Z,28.32
2018-07-06T20:22:53.853Z,28.32
2018-07-06T20:25:24.554Z,28.35
2018-07-06T20:27:54.593Z,28.26
2018-07-06T20:30:25.125Z,28.30
2018-07-06T20:32:55.704Z,28.13
2018-07-06T20:35:26.466Z,27.95
2018-07-06T20:37:57.158Z,27.59
2018-07-06T20:40:28.014Z,27.87
2018-07-06T20:42:58.608Z,27.97
2018-07-06T20:45:30.158Z,27.74
2018-07-06T20:48:00.958Z,27.61
2018-07-06T20:50:31.897Z,27.14
2018-07-06T20:53:02.665Z,27.36
2018-07-06T20:55:33.410Z,27.23
2018-07-06T20:58:04.192Z,26.98
2018-07-06T21:00:34.970Z,27.01
2018-07-06T21:03:05.750Z,27.04
2018-07-06T21:05:36.650Z,27.08
2018-07-06T21:08:07.527Z,27.23
2018-07-06T21:10:38.388Z,27.40
2018-07-06T21:13:09.107Z,27.32
2018-07-06T21:15:39.890Z,27.38
2018-07-06T21:18:10.617Z,27.16
2018-07-06T21:20:41.790Z,27.28
2018-07-06T21:23:11.756Z,27.39
2018-07-06T21:25:43.170Z,27.43
2018-07-06T21:28:13.252Z,27.50
2018-07-06T21:30:44.150Z,27.41
2018-07-06T21:33:14.915Z,27.09
2018-07-06T21:35:45.725Z,27.10
2018-07-06T21:38:16.383Z,26.95
2018-07-06T21:40:47.322Z,27.01
2018-07-06T21:43:18.101Z,27.01
2018-07-06T21:45:48.845Z,26.96
2018-07-06T21:48:19.521Z,27.02
2018-07-06T21:50:50.877Z,27.16
2018-07-06T21:53:21.587Z,27.14
2018-07-06T21:55:57.433Z,27.09
2018-07-06T21:58:28.170Z,27.03
2018-07-06T22:00:59.037Z,27.13
2018-07-06T22:03:29.571Z,27.14
2018-07-06T22:06:00.254Z,27.13
2018-07-06T22:08:31.349Z,27.05
2018-07-06T22:11:02.177Z,26.85
2018-07-06T22:13:32.805Z,26.55
2018-07-06T22:16:04.623Z,26.54
2018-07-06T22:18:35.385Z,26.66
2018-07-06T22:21:06.238Z,26.71
2018-07-06T22:23:36.907Z,26.73
2018-07-06T22:26:07.693Z,26.64
2018-07-06T22:28:38.349Z,26.60
2018-07-06T22:31:09.470Z,26.61
2018-07-06T22:33:40.121Z,26.76
2018-07-06T22:36:10.918Z,26.81
2018-07-06T22:38:41.566Z,26.88
2018-07-06T22:41:12.453Z,26.91
2018-07-06T22:43:44.718Z,26.97
2018-07-06T22:46:15.529Z,27.03
2018-07-06T22:48:46.158Z,26.75
2018-07-06T22:51:16.953Z,26.81
2018-07-06T22:53:47.601Z,26.87
2018-07-06T22:56:18.205Z,26.64
2018-07-06T22:58:48.866Z,26.42
2018-07-06T23:01:19.662Z,26.52
2018-07-06T23:03:50.379Z,26.56
2018-07-06T23:06:21.217Z,26.54
2018-07-06T23:08:51.960Z,26.45
2018-07-06T23:11:22.623Z,26.40
2018-07-06T23:13:53.267Z,26.42
2018-07-06T23:16:23.933Z,26.39
2018-07-06T23:18:54.132Z,26.41
2018-07-06T23:21:25.029Z,26.43
2018-07-06T23:23:55.689Z,26.48
2018-07-06T23:26:26.526Z,26.53
2018-07-06T23:28:57.250Z,26.49
2018-07-06T23:31:28.167Z,26.48
2018-07-06T23:33:58.970Z,26.54
2018-07-06T23:36:29.762Z,26.55
2018-07-06T23:39:00.277Z,26.63
2018-07-06T23:41:31.201Z,26.59
2018-07-06T23:44:01.961Z,26.16
2018-07-06T23:46:32.741Z,26.28
2018-07-06T23:49:02.902Z,26.30
2018-07-06T23:51:33.423Z,26.25
2018-07-06T23:54:04.098Z,26.01
2018-07-06T23:56:34.753Z,25.47
2018-07-06T23:59:05.160Z,25.48
